Time;durP1;ratioP1;P1;durP2;ratioP2;P2;SDS_P1;SDS_P2;PMS_P1;PMS_P2;Temp;Humidity;BMP_temperature;BMP_pressure;BME280_temperature;BME280_humidity;BME280_pressure;Samples;Min_cycle;Max_cycle;Signal;HPM_P1;HPM_P2
2023/06/29 00:02:20;;;;;;;34.60;32.75;;;;;;;;;;5012887;28;20337;-70
2023/06/29 00:04:45;;;;;;;28.77;27.25;;;;;;;;;;5015102;28;20048;-70
2023/06/29 00:07:10;;;;;;;27.88;26.40;;;;;;;;;;5014274;28;20095;-70
2023/06/29 00:09:36;;;;;;;25.85;24.48;;;;;;;;;;5013163;28;20029;-71
2023/06/29 00:12:01;;;;;;;26.27;24.90;;;;;;;;;;5013889;28;20076;-70
2023/06/29 00:14:26;;;;;;;27.52;26.08;;;;;;;;;;5015001;28;20459;-70
2023/06/29 00:16:52;;;;;;;36.47;34.53;;;;;;;;;;5012508;28;20042;-72
2023/06/29 00:19:20;;;;;;;46.70;44.30;;;;;;;;;;5016477;28;20061;-72
2023/06/29 00:21:47;;;;;;;32.60;30.85;;;;;;;;;;5014186;28;20037;-72
2023/06/29 00:24:13;;;;;;;34.22;32.38;;;;;;;;;;5013153;28;20385;-72
2023/06/29 00:26:39;;;;;;;54.40;51.60;;;;;;;;;;5022261;28;20038;-72
2023/06/29 00:29:05;;;;;;;39.17;37.08;;;;;;;;;;5014704;28;20030;-72
2023/06/29 00:31:30;;;;;;;54.67;51.33;;;;;;;;;;5012736;28;20040;-72
2023/06/29 00:33:56;;;;;;;38.90;36.90;;;;;;;;;;5014603;28;20502;-71
2023/06/29 00:36:21;;;;;;;47.60;45.15;;;;;;;;;;5015959;28;20108;-72
2023/06/29 00:38:47;;;;;;;58.03;55.05;;;;;;;;;;5013598;28;20116;-73
2023/06/29 00:41:12;;;;;;;38.63;36.65;;;;;;;;;;5014452;28;20191;-72
2023/06/29 00:43:37;;;;;;;103.65;97.93;;;;;;;;;;5015157;28;20076;-71
2023/06/29 00:46:07;;;;;;;79.25;75.18;;;;;;;;;;5012516;28;20044;-70
2023/06/29 00:48:35;;;;;;;46.72;44.35;;;;;;;;;;5014827;28;20589;-70
2023/06/29 00:51:01;;;;;;;61.38;58.25;;;;;;;;;;5013826;28;20047;-69
2023/06/29 00:53:27;;;;;;;108.47;102.88;;;;;;;;;;5010546;28;20080;-69
2023/06/29 00:55:53;;;;;;;107.90;102.40;;;;;;;;;;5013591;28;20034;-70
2023/06/29 00:58:18;;;;;;;123.32;117.03;;;;;;;;;;5013036;28;20033;-69
2023/06/29 01:00:43;;;;;;;132.48;125.72;;;;;;;;;;5014532;28;20041;-69
2023/06/29 01:03:09;;;;;;;118.57;110.35;;;;;;;;;;5011414;28;20534;-69
2023/06/29 01:05:34;;;;;;;50.63;48.03;;;;;;;;;;5014316;28;20037;-70
2023/06/29 01:08:13;;;;;;;65.57;62.10;;;;;;;;;;5029267;28;20029;-69
2023/06/29 01:10:38;;;;;;;63.85;60.65;;;;;;;;;;5010065;28;20033;-68
2023/06/29 01:13:06;;;;;;;100.50;95.43;;;;;;;;;;5010653;28;20045;-69
2023/06/29 01:15:34;;;;;;;103.43;98.28;;;;;;;;;;5014551;28;20038;-69
2023/06/29 01:18:03;;;;;;;136.68;129.73;;;;;;;;;;5013352;28;20029;-70
2023/06/29 01:20:31;;;;;;;159.43;151.45;;;;;;;;;;5010972;28;20049;-70
2023/06/29 01:23:03;;;;;;;163.65;155.50;;;;;;;;;;5012613;28;20041;-69
2023/06/29 01:25:29;;;;;;;168.77;160.35;;;;;;;;;;5014390;28;20041;-69
2023/06/29 01:27:55;;;;;;;171.20;162.68;;;;;;;;;;5014493;28;20383;-69
2023/06/29 01:30:21;;;;;;;166.32;157.73;;;;;;;;;;5013386;28;20037;-69
2023/06/29 01:32:47;;;;;;;149.00;141.55;;;;;;;;;;5010875;28;20100;-70
2023/06/29 01:35:13;;;;;;;157.38;149.52;;;;;;;;;;5015007;28;20037;-69
2023/06/29 01:37:45;;;;;;;137.05;129.95;;;;;;;;;;5013328;28;20037;-69
2023/06/29 01:40:15;;;;;;;145.30;137.90;;;;;;;;;;5013276;28;20522;-69
2023/06/29 01:42:42;;;;;;;125.65;119.43;;;;;;;;;;5012408;28;20044;-70
2023/06/29 01:45:08;;;;;;;116.38;110.57;;;;;;;;;;5015206;28;20044;-70
2023/06/29 01:47:34;;;;;;;112.30;106.68;;;;;;;;;;5009775;28;20030;-70
2023/06/29 01:50:00;;;;;;;115.07;109.30;;;;;;;;;;5014144;28;20062;-69
2023/06/29 01:52:26;;;;;;;83.88;79.68;;;;;;;;;;5012922;28;20467;-69
2023/06/29 01:54:52;;;;;;;90.18;85.68;;;;;;;;;;5015902;28;20041;-69
2023/06/29 01:57:17;;;;;;;75.43;71.70;;;;;;;;;;5013751;28;20038;-70
2023/06/29 01:59:44;;;;;;;76.57;72.75;;;;;;;;;;5011592;28;20107;-70
2023/06/29 02:02:10;;;;;;;70.80;67.28;;;;;;;;;;5010475;28;20029;-68
2023/06/29 02:04:35;;;;;;;71.57;68.00;;;;;;;;;;5012736;28;20453;-69
2023/06/29 02:07:00;;;;;;;66.07;62.75;;;;;;;;;;5013047;28;20456;-68
2023/06/29 02:09:26;;;;;;;63.80;60.60;;;;;;;;;;5011704;28;20379;-68
2023/06/29 02:11:51;;;;;;;64.47;61.25;;;;;;;;;;5014538;28;20352;-68
2023/06/29 02:14:17;;;;;;;59.70;56.70;;;;;;;;;;5012517;28;20515;-69
2023/06/29 02:16:46;;;;;;;56.22;52.95;;;;;;;;;;5009598;28;20034;-69
2023/06/29 02:19:12;;;;;;;62.13;59.00;;;;;;;;;;5013839;28;20120;-69
2023/06/29 02:21:37;;;;;;;50.85;48.25;;;;;;;;;;5013863;28;20829;-69
2023/06/29 02:24:03;;;;;;;40.72;38.58;;;;;;;;;;5010595;28;20068;-69
2023/06/29 02:26:28;;;;;;;35.20;33.33;;;;;;;;;;5014139;28;20039;-69
2023/06/29 02:28:54;;;;;;;37.33;35.28;;;;;;;;;;5010156;28;20352;-68
2023/06/29 02:31:19;;;;;;;39.22;37.22;;;;;;;;;;5013016;28;20530;-68
2023/06/29 02:33:45;;;;;;;37.55;35.60;;;;;;;;;;5012147;28;20502;-68
2023/06/29 02:36:10;;;;;;;47.95;45.50;;;;;;;;;;5011610;28;20557;-68
2023/06/29 02:38:36;;;;;;;48.10;45.65;;;;;;;;;;5007959;28;20077;-69
2023/06/29 02:41:01;;;;;;;84.05;79.85;;;;;;;;;;5012090;28;20033;-69
2023/06/29 02:43:27;;;;;;;85.60;81.28;;;;;;;;;;5009606;28;20329;-69
2023/06/29 02:45:52;;;;;;;103.78;98.60;;;;;;;;;;5010155;28;20047;-69
2023/06/29 02:48:17;;;;;;;109.63;104.13;;;;;;;;;;5014542;28;20095;-68
2023/06/29 02:50:43;;;;;;;80.95;76.90;;;;;;;;;;5013415;28;20215;-68
2023/06/29 02:53:11;;;;;;;74.22;70.50;;;;;;;;;;5010091;28;20041;-69
2023/06/29 02:55:36;;;;;;;76.95;73.05;;;;;;;;;;5011106;28;20330;-68
2023/06/29 02:58:01;;;;;;;74.18;70.43;;;;;;;;;;5010936;28;20041;-69
2023/06/29 03:00:27;;;;;;;64.13;60.83;;;;;;;;;;5011832;28;20040;-69
2023/06/29 03:02:52;;;;;;;72.75;69.03;;;;;;;;;;5013083;28;20044;-68
2023/06/29 03:05:17;;;;;;;55.72;52.85;;;;;;;;;;5014971;28;20364;-68
2023/06/29 03:07:43;;;;;;;45.83;43.47;;;;;;;;;;5013005;28;20572;-68
2023/06/29 03:10:08;;;;;;;36.33;34.45;;;;;;;;;;5013608;28;20030;-68
2023/06/29 03:12:34;;;;;;;30.83;29.20;;;;;;;;;;5013037;28;20033;-68
2023/06/29 03:14:59;;;;;;;37.55;35.60;;;;;;;;;;5009167;28;20097;-68
2023/06/29 03:17:27;;;;;;;35.92;34.08;;;;;;;;;;5012346;28;20086;-68
2023/06/29 03:19:52;;;;;;;35.17;33.33;;;;;;;;;;5011459;28;20037;-68
2023/06/29 03:22:17;;;;;;;36.38;34.47;;;;;;;;;;5013674;28;20042;-68
2023/06/29 03:24:43;;;;;;;49.22;46.72;;;;;;;;;;5011745;28;20115;-68
2023/06/29 03:27:08;;;;;;;55.60;52.80;;;;;;;;;;5012989;28;20033;-69
2023/06/29 03:29:33;;;;;;;59.28;56.28;;;;;;;;;;5012795;28;20120;-69
2023/06/29 03:31:59;;;;;;;71.30;67.70;;;;;;;;;;5009173;28;20029;-69
2023/06/29 03:34:26;;;;;;;74.57;70.82;;;;;;;;;;5013374;28;20046;-68
2023/06/29 03:36:51;;;;;;;82.97;78.78;;;;;;;;;;5014338;28;20061;-68
2023/06/29 03:39:17;;;;;;;99.18;94.15;;;;;;;;;;5009631;28;20076;-68
2023/06/29 03:41:42;;;;;;;99.72;94.72;;;;;;;;;;5010738;28;20322;-69
2023/06/29 03:44:07;;;;;;;109.47;103.97;;;;;;;;;;5012673;28;20173;-69
2023/06/29 03:46:33;;;;;;;84.03;79.75;;;;;;;;;;5008472;28;20061;-68
2023/06/29 03:48:58;;;;;;;88.72;84.28;;;;;;;;;;5010386;28;20096;-68
2023/06/29 03:51:23;;;;;;;90.15;85.60;;;;;;;;;;5019458;28;20041;-69
2023/06/29 03:53:49;;;;;;;90.45;85.82;;;;;;;;;;5011514;28;20324;-68
2023/06/29 03:56:14;;;;;;;99.53;94.57;;;;;;;;;;5010085;28;20042;-69
2023/06/29 03:58:39;;;;;;;92.15;87.53;;;;;;;;;;5010539;28;20042;-68
2023/06/29 04:01:05;;;;;;;92.13;87.55;;;;;;;;;;5012231;28;20057;-69
2023/06/29 04:03:30;;;;;;;100.00;95.00;;;;;;;;;;5011447;28;20181;-68
2023/06/29 04:05:56;;;;;;;108.95;103.50;;;;;;;;;;5014871;28;20029;-69
2023/06/29 04:08:21;;;;;;;122.30;116.25;;;;;;;;;;5019470;28;20392;-69
2023/06/29 04:10:47;;;;;;;113.10;107.45;;;;;;;;;;5016373;28;20112;-61
2023/06/29 04:13:12;;;;;;;93.05;88.35;;;;;;;;;;5014755;28;20479;-61
2023/06/29 04:15:37;;;;;;;84.53;80.25;;;;;;;;;;5013026;28;20030;-68
2023/06/29 04:18:03;;;;;;;77.25;73.43;;;;;;;;;;5014545;28;20033;-67
2023/06/29 04:20:29;;;;;;;77.82;73.82;;;;;;;;;;5014424;28;20040;-66
2023/06/29 04:22:55;;;;;;;55.78;52.92;;;;;;;;;;5014718;28;20380;-67
2023/06/29 04:25:21;;;;;;;45.38;43.03;;;;;;;;;;5013434;28;20483;-67
2023/06/29 04:27:46;;;;;;;34.92;33.10;;;;;;;;;;5013021;28;20045;-69
2023/06/29 04:30:12;;;;;;;41.47;39.28;;;;;;;;;;5012125;28;20041;-69
2023/06/29 04:32:38;;;;;;;36.17;34.22;;;;;;;;;;5010277;28;20038;-69
2023/06/29 04:35:04;;;;;;;59.88;56.85;;;;;;;;;;5013266;28;20044;-69
2023/06/29 04:37:36;;;;;;;44.72;42.45;;;;;;;;;;5011682;28;20374;-68
2023/06/29 04:40:04;;;;;;;34.03;32.25;;;;;;;;;;5011494;28;20107;-70
2023/06/29 04:42:30;;;;;;;42.45;40.28;;;;;;;;;;5014063;28;20124;-70
2023/06/29 04:44:56;;;;;;;33.83;32.05;;;;;;;;;;5012098;28;20452;-69
2023/06/29 04:47:21;;;;;;;37.67;35.70;;;;;;;;;;5014830;28;20053;-69
2023/06/29 04:49:51;;;;;;;46.58;44.20;;;;;;;;;;5014237;28;20144;-67
2023/06/29 04:52:18;;;;;;;48.53;46.08;;;;;;;;;;5014746;28;20597;-68
2023/06/29 04:54:44;;;;;;;37.58;35.63;;;;;;;;;;5013905;28;20033;-67
2023/06/29 04:57:12;;;;;;;29.95;28.35;;;;;;;;;;5013039;28;20040;-67
2023/06/29 04:59:37;;;;;;;20.98;19.83;;;;;;;;;;5016613;28;20037;-66
2023/06/29 05:02:04;;;;;;;20.48;19.30;;;;;;;;;;5013498;28;20461;-68
2023/06/29 05:04:29;;;;;;;21.95;20.65;;;;;;;;;;5022405;28;20538;-60
2023/06/29 05:06:55;;;;;;;21.10;19.98;;;;;;;;;;5015885;28;20101;-68
2023/06/29 05:09:20;;;;;;;26.02;24.63;;;;;;;;;;5015843;28;20075;-66
2023/06/29 05:11:45;;;;;;;25.02;23.58;;;;;;;;;;5014055;28;20069;-67
2023/06/29 05:14:11;;;;;;;26.52;24.77;;;;;;;;;;5018194;28;20041;-68
2023/06/29 05:16:36;;;;;;;26.30;24.90;;;;;;;;;;5017142;28;20048;-68
2023/06/29 05:19:02;;;;;;;29.33;27.73;;;;;;;;;;5017548;28;20049;-67
2023/06/29 05:21:28;;;;;;;29.33;27.73;;;;;;;;;;5013861;28;20034;-68
2023/06/29 05:23:54;;;;;;;36.15;34.25;;;;;;;;;;5014698;28;20026;-68
2023/06/29 05:26:19;;;;;;;34.10;32.30;;;;;;;;;;5012282;28;20543;-69
2023/06/29 05:28:45;;;;;;;39.03;36.92;;;;;;;;;;5015239;28;20038;-68
2023/06/29 05:31:10;;;;;;;36.17;34.28;;;;;;;;;;5011185;28;20037;-68
2023/06/29 05:33:35;;;;;;;42.10;39.90;;;;;;;;;;5016169;28;20429;-68
2023/06/29 05:36:01;;;;;;;34.72;32.92;;;;;;;;;;5016451;28;20040;-68
2023/06/29 05:38:29;;;;;;;35.47;33.63;;;;;;;;;;5015496;28;20041;-69
2023/06/29 05:40:54;;;;;;;36.20;34.30;;;;;;;;;;5011257;28;20033;-68
2023/06/29 05:43:21;;;;;;;44.20;41.75;;;;;;;;;;5015662;28;20041;-69
2023/06/29 05:45:47;;;;;;;50.60;48.00;;;;;;;;;;5014073;28;20037;-67
2023/06/29 05:48:12;;;;;;;35.63;33.72;;;;;;;;;;5011546;28;20060;-68
2023/06/29 05:50:37;;;;;;;29.40;27.65;;;;;;;;;;5014266;28;20555;-67
2023/06/29 05:53:04;;;;;;;49.28;46.72;;;;;;;;;;5012395;28;20033;-67
2023/06/29 05:55:29;;;;;;;30.08;28.45;;;;;;;;;;5013760;28;20644;-67
2023/06/29 05:57:54;;;;;;;22.67;21.48;;;;;;;;;;5013733;28;20038;-68
2023/06/29 06:00:20;;;;;;;31.00;29.40;;;;;;;;;;5013666;28;20083;-67
2023/06/29 06:02:45;;;;;;;32.00;30.30;;;;;;;;;;5012054;28;20046;-67
2023/06/29 06:05:11;;;;;;;29.35;27.80;;;;;;;;;;5014150;28;20120;-68
2023/06/29 06:07:36;;;;;;;31.15;29.55;;;;;;;;;;5012571;28;20040;-67
2023/06/29 06:10:03;;;;;;;33.90;32.00;;;;;;;;;;5010831;28;20361;-68
2023/06/29 06:12:28;;;;;;;25.52;24.15;;;;;;;;;;5013413;28;20040;-68
2023/06/29 06:14:54;;;;;;;26.27;24.88;;;;;;;;;;5008621;28;20026;-67
2023/06/29 06:17:19;;;;;;;24.05;22.75;;;;;;;;;;5012753;28;20095;-67
2023/06/29 06:19:45;;;;;;;24.52;23.13;;;;;;;;;;5009254;28;20034;-66
2023/06/29 06:22:10;;;;;;;21.75;20.58;;;;;;;;;;5012669;28;20029;-66
2023/06/29 06:24:36;;;;;;;25.08;23.75;;;;;;;;;;5002232;28;20045;-61
2023/06/29 06:27:02;;;;;;;23.60;22.35;;;;;;;;;;5011223;28;20403;-61
2023/06/29 06:29:27;;;;;;;30.23;28.42;;;;;;;;;;5014518;28;20037;-61
2023/06/29 06:31:53;;;;;;;30.60;28.98;;;;;;;;;;5011723;28;20041;-61
2023/06/29 06:34:19;;;;;;;28.27;26.77;;;;;;;;;;5012767;28;20771;-67
2023/06/29 06:36:46;;;;;;;20.45;19.35;;;;;;;;;;5010642;28;20132;-61
2023/06/29 06:39:11;;;;;;;19.08;17.98;;;;;;;;;;5012076;28;20048;-67
2023/06/29 06:41:37;;;;;;;31.25;29.55;;;;;;;;;;5012087;28;20617;-66
2023/06/29 06:44:02;;;;;;;23.85;22.60;;;;;;;;;;5015019;28;20936;-61
2023/06/29 06:46:28;;;;;;;28.00;26.50;;;;;;;;;;5016127;28;20594;-61
2023/06/29 06:48:53;;;;;;;20.13;19.02;;;;;;;;;;5012378;28;20033;-61
2023/06/29 06:51:18;;;;;;;25.35;23.95;;;;;;;;;;5013535;28;20033;-66
2023/06/29 06:53:44;;;;;;;38.88;36.78;;;;;;;;;;5010403;28;20045;-66
2023/06/29 06:56:09;;;;;;;22.17;20.98;;;;;;;;;;5011104;28;20029;-61
2023/06/29 06:58:35;;;;;;;20.58;19.38;;;;;;;;;;5013768;28;20112;-66
2023/06/29 07:01:00;;;;;;;20.60;19.50;;;;;;;;;;5015760;28;20121;-66
2023/06/29 07:03:25;;;;;;;24.23;22.90;;;;;;;;;;5011438;28;20537;-65
2023/06/29 07:05:53;;;;;;;33.45;31.73;;;;;;;;;;5007590;28;20046;-61
2023/06/29 07:08:19;;;;;;;176.20;167.68;;;;;;;;;;5014660;28;20048;-61
2023/06/29 07:10:44;;;;;;;168.88;160.57;;;;;;;;;;5013663;28;20434;-62
2023/06/29 07:13:10;;;;;;;36.97;35.05;;;;;;;;;;5012460;28;20096;-65
2023/06/29 07:15:35;;;;;;;239.98;228.48;;;;;;;;;;5009946;28;20364;-68
2023/06/29 07:18:00;;;;;;;37.65;35.72;;;;;;;;;;5012852;28;20065;-67
2023/06/29 07:20:26;;;;;;;204.10;194.18;;;;;;;;;;5014530;28;20041;-66
2023/06/29 07:22:51;;;;;;;70.57;67.05;;;;;;;;;;5010156;28;20151;-66
2023/06/29 07:25:16;;;;;;;104.55;99.40;;;;;;;;;;5012297;28;20069;-61
2023/06/29 07:27:42;;;;;;;264.85;252.15;;;;;;;;;;5007383;28;21042;-66
2023/06/29 07:30:08;;;;;;;135.05;128.40;;;;;;;;;;5013231;28;20549;-61
2023/06/29 07:32:34;;;;;;;67.50;64.07;;;;;;;;;;5011989;28;20034;-66
2023/06/29 07:34:59;;;;;;;217.65;207.18;;;;;;;;;;5012868;28;20041;-61
2023/06/29 07:37:25;;;;;;;137.05;130.32;;;;;;;;;;5014043;28;20108;-61
2023/06/29 07:39:50;;;;;;;98.82;93.97;;;;;;;;;;5008780;28;20451;-66
2023/06/29 07:42:16;;;;;;;121.03;115.05;;;;;;;;;;5016960;28;20546;-66
2023/06/29 07:44:41;;;;;;;149.15;141.85;;;;;;;;;;5013447;28;20033;-61
2023/06/29 07:47:06;;;;;;;179.40;170.60;;;;;;;;;;5016749;28;20080;-67
2023/06/29 07:49:32;;;;;;;266.88;253.55;;;;;;;;;;5017077;28;20069;-61
2023/06/29 07:51:58;;;;;;;127.70;121.43;;;;;;;;;;5012585;28;20052;-61
2023/06/29 07:54:23;;;;;;;305.17;290.15;;;;;;;;;;5017747;28;20038;-61
2023/06/29 07:56:49;;;;;;;54.22;51.45;;;;;;;;;;5012398;28;20364;-61
2023/06/29 07:59:14;;;;;;;34.92;33.13;;;;;;;;;;5016119;28;20154;-67
2023/06/29 08:01:40;;;;;;;78.32;74.45;;;;;;;;;;5013666;28;20621;-67
2023/06/29 08:04:08;;;;;;;243.82;231.70;;;;;;;;;;5015084;28;20034;-67
2023/06/29 08:06:34;;;;;;;192.63;183.10;;;;;;;;;;5015270;28;20110;-61
2023/06/29 08:09:00;;;;;;;40.92;38.83;;;;;;;;;;5017256;28;20038;-61
2023/06/29 08:11:26;;;;;;;36.42;34.53;;;;;;;;;;5015144;28;20491;-67
2023/06/29 08:13:52;;;;;;;41.17;39.08;;;;;;;;;;5014030;28;20046;-61
2023/06/29 08:16:17;;;;;;;73.65;70.00;;;;;;;;;;5018143;28;20042;-60
2023/06/29 08:18:42;;;;;;;41.53;39.42;;;;;;;;;;5013149;28;20025;-61
2023/06/29 08:21:10;;;;;;;54.40;51.65;;;;;;;;;;5014814;28;20526;-61
2023/06/29 08:23:36;;;;;;;181.48;172.52;;;;;;;;;;5014948;28;20473;-61
2023/06/29 08:26:03;;;;;;;82.50;78.43;;;;;;;;;;5015902;28;20046;-67
2023/06/29 08:28:28;;;;;;;40.03;37.95;;;;;;;;;;5015514;28;20072;-66
2023/06/29 08:30:54;;;;;;;45.63;42.85;;;;;;;;;;5010400;28;20025;-61
2023/06/29 08:33:20;;;;;;;280.15;266.23;;;;;;;;;;5015760;28;20052;-60
2023/06/29 08:35:45;;;;;;;41.75;39.60;;;;;;;;;;5013198;28;20055;-61
2023/06/29 08:38:10;;;;;;;108.20;102.85;;;;;;;;;;5016344;28;20069;-67
2023/06/29 08:40:38;;;;;;;89.85;85.43;;;;;;;;;;5016573;28;20203;-66
2023/06/29 08:43:03;;;;;;;54.97;52.22;;;;;;;;;;5012631;28;20520;-61
2023/06/29 08:45:29;;;;;;;112.07;106.57;;;;;;;;;;5017805;28;20038;-60
2023/06/29 08:47:55;;;;;;;99.20;94.30;;;;;;;;;;5008366;28;20036;-67
2023/06/29 08:50:27;;;;;;;98.15;93.28;;;;;;;;;;5016971;28;20069;-66
2023/06/29 08:52:53;;;;;;;101.10;96.07;;;;;;;;;;5009647;28;20045;-66
2023/06/29 08:55:18;;;;;;;94.75;90.10;;;;;;;;;;5016519;28;20033;-66
2023/06/29 08:57:45;;;;;;;79.00;75.13;;;;;;;;;;5013672;28;20116;-64
2023/06/29 09:00:12;;;;;;;118.65;112.82;;;;;;;;;;5012259;28;20112;-66
2023/06/29 09:02:37;;;;;;;121.38;115.43;;;;;;;;;;5015376;28;20120;-66
2023/06/29 09:05:03;;;;;;;131.10;124.63;;;;;;;;;;5013627;28;20112;-66
2023/06/29 09:07:29;;;;;;;73.82;70.20;;;;;;;;;;5012861;28;20041;-65
2023/06/29 09:09:55;;;;;;;132.88;126.35;;;;;;;;;;5015614;28;20194;-66
2023/06/29 09:12:20;;;;;;;79.28;75.35;;;;;;;;;;5012110;28;20037;-66
2023/06/29 09:14:47;;;;;;;72.85;69.25;;;;;;;;;;5015507;28;20038;-67
2023/06/29 09:17:17;;;;;;;58.60;55.67;;;;;;;;;;5015323;28;20033;-66
2023/06/29 09:19:57;;;;;;;130.70;124.30;;;;;;;;;;5009817;28;20025;-67
2023/06/29 09:22:26;;;;;;;162.23;154.30;;;;;;;;;;5008768;28;20049;-67
2023/06/29 09:24:58;;;;;;;130.10;123.70;;;;;;;;;;5015473;28;20550;-67
2023/06/29 09:27:24;;;;;;;90.90;86.40;;;;;;;;;;5013877;28;20426;-67
2023/06/29 09:29:51;;;;;;;165.15;157.15;;;;;;;;;;5016995;28;20049;-67
2023/06/29 09:32:16;;;;;;;121.07;115.10;;;;;;;;;;5012184;28;20037;-66
2023/06/29 09:34:47;;;;;;;125.15;119.00;;;;;;;;;;5013335;28;20048;-66
2023/06/29 09:37:13;;;;;;;;;;;;;;;;;;5014522;28;20038;-66
2023/06/29 09:40:04;;;;;;;82.03;77.97;;;;;;;;;;5012335;28;19921;-67
2023/06/29 09:42:36;;;;;;;146.27;139.07;;;;;;;;;;5009892;28;20045;-66
2023/06/29 09:45:02;;;;;;;138.60;131.80;;;;;;;;;;5014060;28;20021;-67
2023/06/29 09:47:28;;;;;;;193.15;183.80;;;;;;;;;;5014115;28;20363;-66
2023/06/29 09:49:54;;;;;;;183.07;174.18;;;;;;;;;;5013271;28;20538;-67
2023/06/29 09:52:19;;;;;;;91.35;86.85;;;;;;;;;;5012832;28;20037;-65
2023/06/29 09:54:45;;;;;;;161.90;153.93;;;;;;;;;;5014446;28;20044;-65
2023/06/29 09:57:10;;;;;;;114.03;108.43;;;;;;;;;;5012133;28;20033;-65
2023/06/29 09:59:40;;;;;;;95.22;90.53;;;;;;;;;;5009460;28;20030;-65
2023/06/29 10:02:08;;;;;;;97.28;92.47;;;;;;;;;;5010784;28;20113;-65
2023/06/29 10:04:34;;;;;;;144.63;137.50;;;;;;;;;;5012260;28;20044;-67
2023/06/29 10:07:08;;;;;;;111.35;105.90;;;;;;;;;;5012444;28;20095;-66
2023/06/29 10:09:40;;;;;;;205.93;195.95;;;;;;;;;;5014391;28;20076;-66
2023/06/29 10:12:07;;;;;;;209.27;199.13;;;;;;;;;;5012799;28;20112;-66
2023/06/29 10:14:33;;;;;;;111.85;106.35;;;;;;;;;;5015012;28;20048;-66
2023/06/29 10:17:01;;;;;;;108.47;103.13;;;;;;;;;;5012724;28;21162;-66
2023/06/29 10:19:29;;;;;;;92.30;87.70;;;;;;;;;;5014824;28;20431;-66
2023/06/29 10:21:59;;;;;;;96.07;91.35;;;;;;;;;;5007196;28;20375;-65
2023/06/29 10:24:31;;;;;;;103.15;98.10;;;;;;;;;;5017224;28;20095;-63
2023/06/29 10:26:58;;;;;;;116.70;110.97;;;;;;;;;;5015476;28;20128;-66
2023/06/29 10:29:24;;;;;;;101.35;96.25;;;;;;;;;;5016161;28;20714;-66
2023/06/29 10:31:54;;;;;;;86.05;81.80;;;;;;;;;;5007677;28;20121;-66
2023/06/29 10:34:20;;;;;;;85.65;81.35;;;;;;;;;;5014540;28;20121;-66
2023/06/29 10:36:49;;;;;;;87.03;82.72;;;;;;;;;;5015235;28;20112;-66
2023/06/29 10:39:42;;;;;;;100.15;95.20;;;;;;;;;;5012550;28;20080;-66
2023/06/29 10:42:22;;;;;;;205.40;195.40;;;;;;;;;;5011778;28;20038;-66
2023/06/29 10:44:48;;;;;;;125.53;119.38;;;;;;;;;;5013451;28;20111;-66
2023/06/29 10:47:39;;;;;;;95.03;90.35;;;;;;;;;;5009817;28;20041;-67
2023/06/29 10:50:11;;;;;;;92.63;88.03;;;;;;;;;;5011276;28;20034;-66
2023/06/29 10:52:42;;;;;;;92.65;88.05;;;;;;;;;;5008580;28;20471;-66
2023/06/29 10:55:25;;;;;;;159.93;152.15;;;;;;;;;;5009401;28;20042;-66
2023/06/29 10:57:53;;;;;;;100.65;95.70;;;;;;;;;;5012781;28;20112;-67
2023/06/29 11:00:20;;;;;;;88.38;84.00;;;;;;;;;;5013612;28;20522;-66
2023/06/29 11:02:47;;;;;;;84.10;79.93;;;;;;;;;;5011688;28;20056;-66
2023/06/29 11:05:14;;;;;;;85.40;81.20;;;;;;;;;;5014921;28;20112;-67
2023/06/29 11:07:40;;;;;;;93.55;88.97;;;;;;;;;;5009853;28;20041;-66
2023/06/29 11:10:06;;;;;;;79.43;75.47;;;;;;;;;;5011362;28;20034;-66
2023/06/29 11:12:31;;;;;;;122.50;116.47;;;;;;;;;;5014556;28;20048;-66
2023/06/29 11:14:57;;;;;;;88.60;84.22;;;;;;;;;;5013541;28;20655;-66
2023/06/29 11:17:23;;;;;;;98.55;93.68;;;;;;;;;;5013346;28;21015;-67
2023/06/29 11:19:49;;;;;;;84.75;80.57;;;;;;;;;;5017401;28;20061;-66
2023/06/29 11:22:18;;;;;;;115.88;110.15;;;;;;;;;;5018748;28;20467;-65
2023/06/29 11:24:44;;;;;;;105.95;100.72;;;;;;;;;;5014992;28;20034;-66
2023/06/29 11:27:10;;;;;;;102.18;97.18;;;;;;;;;;5013365;28;20040;-66
2023/06/29 11:29:35;;;;;;;104.97;99.82;;;;;;;;;;5016444;28;20052;-66
2023/06/29 11:32:09;;;;;;;86.20;81.95;;;;;;;;;;5016371;28;20038;-66
2023/06/29 11:34:35;;;;;;;150.52;143.15;;;;;;;;;;5016004;28;20124;-66
2023/06/29 11:37:00;;;;;;;86.65;82.38;;;;;;;;;;5013767;28;21382;-66
2023/06/29 11:39:25;;;;;;;99.72;94.75;;;;;;;;;;5020184;28;20033;-64
2023/06/29 11:41:51;;;;;;;93.97;89.32;;;;;;;;;;5017512;28;20037;-65
2023/06/29 11:44:22;;;;;;;93.55;88.93;;;;;;;;;;5015865;28;20361;-65
2023/06/29 11:46:48;;;;;;;94.57;89.90;;;;;;;;;;5012941;28;20029;-65
2023/06/29 11:49:13;;;;;;;88.82;84.43;;;;;;;;;;5016621;28;20072;-66
2023/06/29 11:51:39;;;;;;;80.07;76.05;;;;;;;;;;5019982;28;20527;-65
2023/06/29 11:54:06;;;;;;;76.72;72.93;;;;;;;;;;5021623;28;20105;-65
2023/06/29 11:56:37;;;;;;;118.22;112.43;;;;;;;;;;5015847;28;20049;-66
2023/06/29 11:59:15;;;;;;;122.65;116.65;;;;;;;;;;5016070;28;20026;-66
2023/06/29 12:01:43;;;;;;;111.60;106.10;;;;;;;;;;5017886;28;20129;-66
2023/06/29 12:04:09;;;;;;;103.63;98.53;;;;;;;;;;5015877;28;20048;-66
2023/06/29 12:06:49;;;;;;;119.22;113.35;;;;;;;;;;5012566;28;20068;-66
2023/06/29 12:09:15;;;;;;;84.72;80.53;;;;;;;;;;5017859;28;20124;-65
2023/06/29 12:11:40;;;;;;;108.97;103.60;;;;;;;;;;5015990;28;20132;-65
2023/06/29 12:14:09;;;;;;;104.95;99.68;;;;;;;;;;5011451;28;20034;-65
2023/06/29 12:16:41;;;;;;;160.40;152.50;;;;;;;;;;5012141;28;20033;-65
2023/06/29 12:19:13;;;;;;;152.48;144.98;;;;;;;;;;5011398;28;20037;-66
2023/06/29 12:21:38;;;;;;;135.52;128.82;;;;;;;;;;5023811;28;20033;-66
2023/06/29 12:24:04;;;;;;;124.75;118.40;;;;;;;;;;5015805;28;20044;-65
2023/06/29 12:26:30;;;;;;;146.95;139.70;;;;;;;;;;5016913;28;20121;-66
2023/06/29 12:28:56;;;;;;;65.38;62.13;;;;;;;;;;5014492;28;20413;-66
2023/06/29 12:31:25;;;;;;;60.97;57.92;;;;;;;;;;5011843;28;20133;-66
2023/06/29 12:33:52;;;;;;;154.02;146.43;;;;;;;;;;5014021;28;20041;-65
2023/06/29 12:36:18;;;;;;;130.23;123.80;;;;;;;;;;5014041;28;20194;-64
2023/06/29 12:38:43;;;;;;;96.05;90.95;;;;;;;;;;5011403;28;20029;-65
2023/06/29 12:41:09;;;;;;;95.30;90.63;;;;;;;;;;5012554;28;20033;-65
2023/06/29 12:43:34;;;;;;;130.32;123.93;;;;;;;;;;5011996;28;20052;-63
2023/06/29 12:45:59;;;;;;;92.68;88.05;;;;;;;;;;5011200;28;20030;-65
2023/06/29 12:48:24;;;;;;;126.25;120.00;;;;;;;;;;5013505;28;20113;-65
2023/06/29 12:50:50;;;;;;;82.35;78.28;;;;;;;;;;5014462;28;20334;-63
2023/06/29 12:53:15;;;;;;;75.75;72.00;;;;;;;;;;5013760;28;20114;-64
2023/06/29 12:55:41;;;;;;;63.47;60.28;;;;;;;;;;5016175;28;20037;-64
2023/06/29 12:58:06;;;;;;;68.97;65.50;;;;;;;;;;5011592;28;20029;-62
2023/06/29 13:00:31;;;;;;;86.85;82.28;;;;;;;;;;5014193;28;20405;-62
2023/06/29 13:02:57;;;;;;;100.63;95.70;;;;;;;;;;5012469;28;20065;-65
2023/06/29 13:05:22;;;;;;;86.82;82.55;;;;;;;;;;5016161;28;20075;-64
2023/06/29 13:07:48;;;;;;;116.50;110.80;;;;;;;;;;5012479;28;20441;-65
2023/06/29 13:10:13;;;;;;;134.93;128.20;;;;;;;;;;5019792;28;20042;-65
2023/06/29 13:12:40;;;;;;;107.57;102.18;;;;;;;;;;5011446;28;20048;-65
2023/06/29 13:15:06;;;;;;;135.25;128.55;;;;;;;;;;5010442;28;20033;-64
2023/06/29 13:17:32;;;;;;;100.80;95.75;;;;;;;;;;5013259;28;20045;-66
2023/06/29 13:19:57;;;;;;;87.18;82.88;;;;;;;;;;5013288;28;20530;-65
2023/06/29 13:22:22;;;;;;;129.45;123.10;;;;;;;;;;5011149;28;20116;-65
2023/06/29 13:24:48;;;;;;;93.50;88.88;;;;;;;;;;5012894;28;20446;-65
2023/06/29 13:27:14;;;;;;;102.72;97.53;;;;;;;;;;5014989;28;20508;-65
2023/06/29 13:29:39;;;;;;;184.70;175.73;;;;;;;;;;5007992;28;20180;-65
2023/06/29 13:32:05;;;;;;;128.07;121.78;;;;;;;;;;5009162;28;20042;-65
2023/06/29 13:34:31;;;;;;;143.77;136.75;;;;;;;;;;5012038;28;20033;-66
2023/06/29 13:36:56;;;;;;;176.55;167.95;;;;;;;;;;5007651;28;20046;-65
2023/06/29 13:39:22;;;;;;;184.65;175.57;;;;;;;;;;5014040;28;20060;-66
2023/06/29 13:41:49;;;;;;;200.23;190.48;;;;;;;;;;5014205;28;20342;-66
2023/06/29 13:44:14;;;;;;;178.52;169.85;;;;;;;;;;5015427;28;20064;-65
2023/06/29 13:46:40;;;;;;;160.15;152.32;;;;;;;;;;5012485;28;20115;-66
2023/06/29 13:49:06;;;;;;;77.43;73.43;;;;;;;;;;5010654;28;20111;-66
2023/06/29 13:51:33;;;;;;;71.07;67.50;;;;;;;;;;5011767;28;20491;-66
2023/06/29 13:54:00;;;;;;;95.32;90.65;;;;;;;;;;5011140;28;20637;-65
2023/06/29 13:56:26;;;;;;;85.05;80.85;;;;;;;;;;5014044;28;20160;-65
2023/06/29 13:58:51;;;;;;;80.95;76.93;;;;;;;;;;5009361;28;20194;-65
2023/06/29 14:01:20;;;;;;;70.97;67.40;;;;;;;;;;5010012;28;20096;-66
2023/06/29 14:03:46;;;;;;;80.32;76.38;;;;;;;;;;5012565;28;20586;-65
2023/06/29 14:06:13;;;;;;;83.15;79.00;;;;;;;;;;5010524;28;20056;-61